Detalii statie PETRESTI PETRESTI [0000197D]

Toti senzorii

Date Temperatura solului [C]Precipitatii [mm]Voltaj baterie [mV]Leaf Wetness [Min]HC Air temperature [C]HC Relative humidity [%]Punctul de roua [C]
medieminmaxsumaultimatimpmedieminmaxmediemediemin
2019-06-15 18:00:00 0 6786 33.55 32.81 34.48 39.37 17.6 17.1
2019-06-15 19:00:00 0 7098 32.37 31.76 32.89 45.01 18.6 17.6
2019-06-15 20:00:00 0 6698 30.64 29.13 31.61 55.95 20.5 19.9
2019-06-15 21:00:00 0 6688 27.44 26.56 28.75 69.54 21.2 20.7
2019-06-15 22:00:00 0 6708 26.05 25.29 26.81 76.49 21.4 21
2019-06-15 23:00:00 0 6678 24.85 24.38 25.28 76.58 20.3 20
2019-06-16 00:00:00 0 6698 24.55 23.75 24.82 76.68 20 19.6
2019-06-16 01:00:00 0 6698 21.49 20.68 23.5 92.65 20.1 19.4
2019-06-16 02:00:00 0 6688 20.86 20.47 21.18 99.38 20.6 20.1
2019-06-16 03:00:00 0 6688 21.01 20.63 21.64 96.73 20.3 19.8
2019-06-16 04:00:00 0 6660 20.6 19.17 21.85 94.88 19.6 18.9
2019-06-16 05:00:00 0 6678 19.17 19.07 19.32 100 19.1 19
2019-06-16 06:00:00 0 6688 20.06 19.51 21.24 99.85 19.9 19.5
2019-06-16 07:00:00 0 6668 22.64 21.29 23.75 92.01 21.1 20.7
2019-06-16 08:00:00 0 6678 26.28 24.05 28.11 73.97 21 19.5
2019-06-16 09:00:00 0 6708 28.68 27.64 29.56 56.28 18.9 18.2
2019-06-16 10:00:00 0 6708 30.64 29.72 32.06 53.14 19.7 18.9
2019-06-16 11:00:00 0 6766 31.94 30.33 33.61 50.41 20 19.6
2019-06-16 12:00:00 0 6922 32.1 31.42 32.96 50.68 20.3 20
2019-06-16 13:00:00 0 6844 33.35 32.21 34.98 47.72 20.5 20.1
2019-06-16 14:00:00 0 7158 33.23 31.52 36.27 46.1 19.8 19
2019-06-16 15:00:00 0 6854 35.2 34.27 36.32 34.98 16.9 13
2019-06-16 16:00:00 0 6826 35.11 33.81 36.43 35.95 17.4 16.4
2019-06-16 17:00:00 0 6756 32.58 31.34 34.25 42 17.7 16.5
2019-06-16 18:00:00 0 6776 31.99 31.34 32.94 46.72 18.9 18
2019-06-16 19:00:00 0 6756 32.38 31.35 33.01 46.6 19.2 18.5
2019-06-16 20:00:00 0 6718 29.14 27.69 31.08 61.85 20.8 20.5
2019-06-16 21:00:00 0 6718 27.54 26.84 28.1 63.69 19.8 19.5
2019-06-16 22:00:00 0 6708 24.32 22.68 26.89 66.37 17.5 16.2
2019-06-16 23:00:00 11.4 6678 21.13 19.45 22.62 84.92 18.2 17.1
2019-06-17 00:00:00 0.4 6698 19.02 18.56 19.52 99.96 18.9 18.5
2019-06-17 01:00:00 0 6688 18.82 18.67 19.1 99.97 18.7 18.6
2019-06-17 02:00:00 0 6688 18.9 18.58 19.48 94.58 17.8 17
2019-06-17 03:00:00 0 6688 18.98 18.7 19.37 91.95 17.5 17.1
2019-06-17 04:00:00 0 6660 18.58 18.44 18.76 98.4 18.2 17.9
2019-06-17 05:00:00 0 6678 18.03 17.64 18.37 100 17.9 17.6
2019-06-17 06:00:00 0 6688 17.62 17.49 18.04 100 17.5 17.4
2019-06-17 07:00:00 0 6708 18.49 18.17 18.91 100 18.4 18.1
2019-06-17 08:00:00 0 6718 19.59 18.8 21.1 98.89 19.3 18.8
2019-06-17 09:00:00 0 6748 22.36 21.63 23.29 82.55 19 18.1
2019-06-17 10:00:00 0 6826 23.25 22.05 24.66 75.62 18.5 18.2
2019-06-17 11:00:00 0 6932 25.13 24.49 26.21 70.19 19.1 18.7
2019-06-17 12:00:00 0 7158 26.69 25.78 28.61 65.52 19.4 18.7
2019-06-17 13:00:00 0 6796 27.78 26.63 28.68 61.41 19.4 18.9
2019-06-17 14:00:00 0 7128 28.25 26.56 29.81 60.24 19.6 19
2019-06-17 15:00:00 0 7158 27.59 26.43 28.82 63.82 19.9 19.5
2019-06-17 16:00:00 0 6894 27.84 27.08 29.04 63.34 20 19.6
2019-06-17 17:00:00 0 7098 28.05 27.28 28.98 61.6 19.7 19.3